Time;durP1;ratioP1;P1;durP2;ratioP2;P2;SDS_P1;SDS_P2;PMS_P1;PMS_P2;Temp;Humidity;BMP_temperature;BMP_pressure;BME280_temperature;BME280_humidity;BME280_pressure;Samples;Min_cycle;Max_cycle;Signal;HPM_P1;HPM_P2
2021/08/03 00:02:08;;;;;;;0.63;0.50;;;;;;;;;;5044844;28;20602;-69
2021/08/03 00:04:36;;;;;;;1.23;0.68;;;;;;;;;;5045252;28;20021;-69
2021/08/03 00:07:02;;;;;;;0.70;0.70;;;;;;;;;;5045145;28;20170;-68
2021/08/03 00:09:31;;;;;;;1.30;0.60;;;;;;;;;;5045832;28;20040;-68
2021/08/03 00:11:57;;;;;;;0.57;0.57;;;;;;;;;;5045382;28;20118;-68
2021/08/03 00:14:23;;;;;;;0.50;0.50;;;;;;;;;;5045051;28;20524;-69
2021/08/03 00:16:49;;;;;;;0.70;0.60;;;;;;;;;;5044569;28;20021;-68
2021/08/03 00:19:16;;;;;;;0.50;0.50;;;;;;;;;;5045279;28;20029;-69
2021/08/03 00:21:42;;;;;;;0.75;0.52;;;;;;;;;;5044963;28;20032;-69
2021/08/03 00:24:08;;;;;;;0.80;0.77;;;;;;;;;;5044508;28;20029;-68
2021/08/03 00:26:34;;;;;;;0.75;0.73;;;;;;;;;;5044965;28;20025;-69
2021/08/03 00:29:00;;;;;;;0.60;0.60;;;;;;;;;;5044057;28;20555;-68
2021/08/03 00:31:27;;;;;;;0.82;0.70;;;;;;;;;;5044433;28;20052;-69
2021/08/03 00:33:54;;;;;;;0.70;0.70;;;;;;;;;;5044649;28;20407;-68
2021/08/03 00:36:20;;;;;;;1.08;0.70;;;;;;;;;;5044827;28;20100;-68
2021/08/03 00:38:47;;;;;;;0.50;0.50;;;;;;;;;;5044793;28;20065;-69
2021/08/03 00:41:15;;;;;;;0.80;0.68;;;;;;;;;;5043248;28;20025;-69
2021/08/03 00:43:41;;;;;;;0.70;0.65;;;;;;;;;;5044842;28;20179;-69
2021/08/03 00:46:08;;;;;;;0.70;0.70;;;;;;;;;;5044206;28;20022;-69
2021/08/03 00:48:35;;;;;;;1.02;0.65;;;;;;;;;;5044802;28;20035;-68
2021/08/03 00:51:01;;;;;;;0.50;0.50;;;;;;;;;;5044426;28;20033;-68
2021/08/03 00:53:27;;;;;;;0.55;0.52;;;;;;;;;;5045283;28;20032;-68
2021/08/03 00:55:53;;;;;;;0.52;0.52;;;;;;;;;;5044322;28;20083;-69
2021/08/03 00:58:20;;;;;;;0.65;0.60;;;;;;;;;;5044630;28;20585;-69
2021/08/03 01:00:46;;;;;;;0.77;0.70;;;;;;;;;;5044369;28;20490;-69
2021/08/03 01:03:14;;;;;;;0.90;0.55;;;;;;;;;;5048142;28;20419;-69
2021/08/03 01:05:58;;;;;;;0.50;0.50;;;;;;;;;;5048663;28;20063;-68
2021/08/03 01:08:24;;;;;;;;;;;;;;;;;;5048737;28;20029;-69
2021/08/03 01:11:04;;;;;;;0.50;0.50;;;;;;;;;;5048092;28;19904;-69
2021/08/03 01:13:33;;;;;;;1.15;0.70;;;;;;;;;;5049384;28;20032;-68
2021/08/03 01:16:07;;;;;;;0.88;0.80;;;;;;;;;;5048399;28;20037;-68
2021/08/03 01:18:41;;;;;;;0.80;0.70;;;;;;;;;;5048219;28;20461;-68
2021/08/03 01:21:26;;;;;;;0.50;0.50;;;;;;;;;;5047889;28;20033;-68
2021/08/03 01:23:57;;;;;;;0.65;0.60;;;;;;;;;;5047276;28;20029;-68
2021/08/03 01:26:43;;;;;;;0.50;0.50;;;;;;;;;;5048173;28;20025;-69
2021/08/03 01:29:10;;;;;;;0.60;0.60;;;;;;;;;;5047605;28;20055;-69
2021/08/03 01:31:41;;;;;;;0.57;0.50;;;;;;;;;;5048004;28;20044;-69
2021/08/03 01:34:09;;;;;;;0.50;0.50;;;;;;;;;;5046771;28;20120;-69
2021/08/03 01:36:37;;;;;;;0.98;0.60;;;;;;;;;;5047872;28;20059;-68
2021/08/03 01:39:04;;;;;;;0.50;0.50;;;;;;;;;;5047444;28;20075;-68
2021/08/03 01:41:31;;;;;;;0.82;0.70;;;;;;;;;;5048376;28;20021;-69
2021/08/03 01:43:58;;;;;;;0.57;0.40;;;;;;;;;;5048295;28;20025;-69
2021/08/03 01:46:25;;;;;;;0.80;0.60;;;;;;;;;;5047684;28;20025;-68
2021/08/03 01:48:53;;;;;;;0.70;0.60;;;;;;;;;;5047534;28;20025;-69
2021/08/03 01:51:19;;;;;;;0.65;0.60;;;;;;;;;;5047539;28;20260;-69
2021/08/03 01:53:45;;;;;;;0.80;0.73;;;;;;;;;;5048026;28;20047;-68
2021/08/03 01:56:13;;;;;;;0.68;0.50;;;;;;;;;;5047244;28;20558;-69
2021/08/03 01:58:41;;;;;;;0.65;0.65;;;;;;;;;;5047481;28;20419;-68
2021/08/03 02:01:07;;;;;;;0.82;0.70;;;;;;;;;;5047041;28;20021;-69
2021/08/03 02:03:35;;;;;;;0.82;0.50;;;;;;;;;;5046219;28;20052;-69
2021/08/03 02:06:05;;;;;;;0.52;0.52;;;;;;;;;;5047735;28;20029;-69
2021/08/03 02:08:32;;;;;;;0.63;0.50;;;;;;;;;;5047878;28;20569;-68
2021/08/03 02:10:59;;;;;;;1.25;0.63;;;;;;;;;;5047337;28;20442;-68
2021/08/03 02:13:25;;;;;;;0.57;0.57;;;;;;;;;;5047103;28;20017;-68
2021/08/03 02:15:51;;;;;;;0.70;0.70;;;;;;;;;;5046932;28;20431;-69
2021/08/03 02:18:18;;;;;;;0.40;0.40;;;;;;;;;;5047117;28;20052;-69
2021/08/03 02:20:45;;;;;;;0.57;0.55;;;;;;;;;;5046894;28;20028;-69
2021/08/03 02:23:11;;;;;;;1.75;0.77;;;;;;;;;;5046180;28;20029;-68
2021/08/03 02:25:37;;;;;;;0.45;0.45;;;;;;;;;;5046967;28;20025;-69
2021/08/03 02:28:04;;;;;;;0.50;0.50;;;;;;;;;;5046861;28;20040;-69
2021/08/03 02:30:30;;;;;;;0.90;0.60;;;;;;;;;;5047299;28;20033;-69
2021/08/03 02:32:56;;;;;;;0.50;0.40;;;;;;;;;;5047037;28;20564;-68
2021/08/03 02:35:29;;;;;;;0.43;0.43;;;;;;;;;;5046843;28;20021;-69
2021/08/03 02:38:02;;;;;;;0.57;0.50;;;;;;;;;;5046179;28;20182;-69
2021/08/03 02:40:28;;;;;;;0.50;0.50;;;;;;;;;;5047445;28;20729;-69
2021/08/03 02:42:55;;;;;;;0.60;0.60;;;;;;;;;;5046440;28;20414;-69
2021/08/03 02:45:21;;;;;;;0.40;0.40;;;;;;;;;;5046714;28;20025;-69
2021/08/03 02:47:57;;;;;;;0.63;0.63;;;;;;;;;;5046653;28;20033;-69
2021/08/03 02:50:25;;;;;;;0.73;0.57;;;;;;;;;;5046562;28;20127;-69
2021/08/03 02:52:54;;;;;;;0.52;0.52;;;;;;;;;;5046182;28;20535;-68
2021/08/03 02:55:25;;;;;;;0.32;0.32;;;;;;;;;;5046589;28;20520;-68
2021/08/03 02:57:55;;;;;;;0.82;0.52;;;;;;;;;;5044765;28;20415;-68
2021/08/03 03:00:21;;;;;;;1.42;0.70;;;;;;;;;;5046236;28;20021;-68
2021/08/03 03:02:48;;;;;;;0.50;0.50;;;;;;;;;;5045984;28;20100;-68
2021/08/03 03:05:16;;;;;;;0.47;0.47;;;;;;;;;;5046134;28;20495;-69
2021/08/03 03:07:50;;;;;;;0.98;0.95;;;;;;;;;;5046366;28;20108;-69
2021/08/03 03:10:21;;;;;;;0.63;0.60;;;;;;;;;;5046091;28;20051;-69
2021/08/03 03:13:00;;;;;;;0.40;0.40;;;;;;;;;;5046315;28;20253;-69
2021/08/03 03:15:26;;;;;;;0.52;0.52;;;;;;;;;;5046222;28;20111;-69
2021/08/03 03:17:53;;;;;;;1.20;0.60;;;;;;;;;;5045927;28;20028;-69
2021/08/03 03:20:19;;;;;;;0.63;0.50;;;;;;;;;;5045817;28;20032;-69
2021/08/03 03:22:47;;;;;;;0.40;0.40;;;;;;;;;;5045677;28;20443;-69
2021/08/03 03:25:19;;;;;;;0.55;0.50;;;;;;;;;;5045521;28;20025;-69
2021/08/03 03:27:49;;;;;;;0.57;0.57;;;;;;;;;;5045665;28;20487;-69
2021/08/03 03:30:15;;;;;;;0.73;0.60;;;;;;;;;;5045699;28;20029;-68
2021/08/03 03:32:42;;;;;;;0.73;0.73;;;;;;;;;;5045809;28;20033;-68
2021/08/03 03:35:09;;;;;;;0.80;0.50;;;;;;;;;;5045419;28;20036;-69
2021/08/03 03:37:35;;;;;;;0.70;0.50;;;;;;;;;;5045469;28;20418;-68
2021/08/03 03:40:02;;;;;;;0.65;0.63;;;;;;;;;;5045286;28;20021;-68
2021/08/03 03:42:30;;;;;;;0.50;0.50;;;;;;;;;;5046349;28;20043;-69
2021/08/03 03:44:56;;;;;;;0.50;0.50;;;;;;;;;;5045769;28;20032;-68
2021/08/03 03:47:26;;;;;;;0.52;0.50;;;;;;;;;;5045749;28;20049;-69
2021/08/03 03:49:57;;;;;;;0.50;0.50;;;;;;;;;;5044848;28;20027;-67
2021/08/03 03:52:24;;;;;;;0.77;0.60;;;;;;;;;;5045423;28;20024;-68
2021/08/03 03:54:54;;;;;;;0.52;0.50;;;;;;;;;;5044330;28;20013;-68
2021/08/03 03:57:21;;;;;;;1.13;0.50;;;;;;;;;;5045230;28;20075;-67
2021/08/03 03:59:49;;;;;;;1.20;0.50;;;;;;;;;;5045183;28;20100;-68
2021/08/03 04:02:16;;;;;;;0.68;0.68;;;;;;;;;;5045699;28;20078;-68
2021/08/03 04:04:42;;;;;;;1.15;0.50;;;;;;;;;;5044169;28;20032;-67
2021/08/03 04:07:08;;;;;;;0.47;0.47;;;;;;;;;;5044970;28;20067;-67
2021/08/03 04:09:34;;;;;;;0.50;0.50;;;;;;;;;;5045047;28;20032;-68
2021/08/03 04:12:01;;;;;;;0.40;0.40;;;;;;;;;;5045690;28;20029;-69
2021/08/03 04:14:28;;;;;;;0.50;0.50;;;;;;;;;;5045786;28;20029;-69
2021/08/03 04:16:57;;;;;;;0.52;0.52;;;;;;;;;;5044905;28;20040;-69
2021/08/03 04:19:23;;;;;;;0.80;0.70;;;;;;;;;;5044968;28;20032;-69
2021/08/03 04:21:50;;;;;;;0.68;0.68;;;;;;;;;;5045253;28;20033;-69
2021/08/03 04:24:18;;;;;;;0.73;0.60;;;;;;;;;;5045058;28;20063;-68
2021/08/03 04:26:44;;;;;;;0.40;0.40;;;;;;;;;;5045192;28;20110;-68
2021/08/03 04:29:11;;;;;;;0.50;0.43;;;;;;;;;;5044666;28;20029;-68
2021/08/03 04:31:38;;;;;;;0.93;0.52;;;;;;;;;;5044823;28;20109;-68
2021/08/03 04:34:04;;;;;;;1.13;0.55;;;;;;;;;;5044647;28;20037;-68
2021/08/03 04:36:31;;;;;;;0.60;0.60;;;;;;;;;;5048567;28;21891;-68
2021/08/03 04:38:58;;;;;;;0.70;0.70;;;;;;;;;;5049379;28;20096;-67
2021/08/03 04:41:24;;;;;;;0.40;0.40;;;;;;;;;;5049015;28;20078;-68
2021/08/03 04:43:50;;;;;;;0.40;0.40;;;;;;;;;;5048495;28;20021;-68
2021/08/03 04:46:17;;;;;;;0.90;0.68;;;;;;;;;;5049145;28;20556;-67
2021/08/03 04:48:43;;;;;;;0.50;0.50;;;;;;;;;;5048844;28;20062;-68
2021/08/03 04:51:09;;;;;;;0.40;0.40;;;;;;;;;;5048550;28;20053;-68
2021/08/03 04:53:35;;;;;;;0.50;0.50;;;;;;;;;;5048570;28;20487;-68
2021/08/03 04:56:01;;;;;;;0.60;0.60;;;;;;;;;;5048751;28;20120;-68
2021/08/03 04:58:27;;;;;;;0.75;0.70;;;;;;;;;;5049177;28;20021;-68
2021/08/03 05:00:54;;;;;;;0.50;0.50;;;;;;;;;;5048337;28;20518;-68
2021/08/03 05:03:21;;;;;;;0.50;0.50;;;;;;;;;;5048535;28;20017;-67
2021/08/03 05:05:47;;;;;;;0.95;0.70;;;;;;;;;;5048383;28;20033;-67
2021/08/03 05:08:13;;;;;;;0.68;0.60;;;;;;;;;;5048880;28;20029;-67
2021/08/03 05:10:39;;;;;;;0.50;0.50;;;;;;;;;;5048469;28;20057;-67
2021/08/03 05:13:06;;;;;;;0.93;0.65;;;;;;;;;;5048293;28;20388;-68
2021/08/03 05:15:33;;;;;;;0.57;0.43;;;;;;;;;;5048389;28;20033;-68
2021/08/03 05:18:00;;;;;;;0.60;0.50;;;;;;;;;;5048422;28;20024;-69
2021/08/03 05:20:26;;;;;;;0.50;0.50;;;;;;;;;;5048240;28;20029;-68
2021/08/03 05:22:52;;;;;;;0.70;0.68;;;;;;;;;;5046693;28;20517;-68
2021/08/03 05:25:18;;;;;;;0.70;0.70;;;;;;;;;;5040913;28;20030;-68
2021/08/03 05:27:44;;;;;;;0.50;0.50;;;;;;;;;;5029534;28;20036;-68
2021/08/03 05:30:11;;;;;;;0.50;0.50;;;;;;;;;;5040183;28;20498;-68
2021/08/03 05:32:37;;;;;;;0.50;0.50;;;;;;;;;;5049384;28;20104;-68
2021/08/03 05:35:04;;;;;;;0.73;0.73;;;;;;;;;;5048908;28;20117;-67
2021/08/03 05:37:30;;;;;;;0.73;0.60;;;;;;;;;;5036784;28;20596;-68
2021/08/03 05:39:56;;;;;;;2.58;0.80;;;;;;;;;;5029061;28;20059;-68
2021/08/03 05:42:23;;;;;;;1.15;0.60;;;;;;;;;;5029416;28;20545;-68
2021/08/03 05:44:51;;;;;;;0.77;0.75;;;;;;;;;;5026459;28;20038;-66
2021/08/03 05:47:17;;;;;;;1.15;0.60;;;;;;;;;;5046461;28;20086;-67
2021/08/03 05:49:43;;;;;;;0.88;0.70;;;;;;;;;;5040200;28;20415;-67
2021/08/03 05:52:09;;;;;;;0.85;0.70;;;;;;;;;;5041459;28;20047;-67
2021/08/03 05:54:35;;;;;;;0.50;0.50;;;;;;;;;;5048575;28;20424;-67
2021/08/03 05:57:01;;;;;;;0.50;0.50;;;;;;;;;;5048146;28;20032;-68
2021/08/03 05:59:27;;;;;;;0.63;0.63;;;;;;;;;;5048202;28;20025;-67
2021/08/03 06:01:53;;;;;;;1.35;0.73;;;;;;;;;;5048542;28;20052;-67
2021/08/03 06:04:19;;;;;;;0.68;0.68;;;;;;;;;;5048687;28;20036;-66
2021/08/03 06:06:47;;;;;;;1.08;0.60;;;;;;;;;;5049285;28;20028;-67
2021/08/03 06:09:14;;;;;;;0.90;0.73;;;;;;;;;;5036474;28;20535;-66
2021/08/03 06:11:45;;;;;;;0.40;0.40;;;;;;;;;;5028487;28;20025;-67
2021/08/03 06:14:11;;;;;;;0.43;0.43;;;;;;;;;;5028007;28;20510;-66
2021/08/03 06:16:38;;;;;;;1.23;0.80;;;;;;;;;;5028527;28;20057;-67
2021/08/03 06:19:05;;;;;;;0.70;0.70;;;;;;;;;;5028156;28;20088;-68
2021/08/03 06:21:31;;;;;;;0.40;0.40;;;;;;;;;;5029710;28;20131;-68
2021/08/03 06:23:57;;;;;;;0.73;0.50;;;;;;;;;;5028128;28;20371;-66
2021/08/03 06:26:24;;;;;;;1.38;0.90;;;;;;;;;;5028372;28;20017;-64
2021/08/03 06:28:51;;;;;;;0.63;0.55;;;;;;;;;;5042939;28;20445;-66
2021/08/03 06:31:18;;;;;;;0.88;0.60;;;;;;;;;;5048222;28;20021;-65
2021/08/03 06:33:46;;;;;;;0.70;0.70;;;;;;;;;;5048837;28;20025;-65
2021/08/03 06:36:12;;;;;;;0.60;0.60;;;;;;;;;;5048600;28;20424;-65
2021/08/03 06:38:38;;;;;;;0.52;0.47;;;;;;;;;;5047509;28;20057;-65
2021/08/03 06:41:08;;;;;;;0.60;0.60;;;;;;;;;;5036341;28;20071;-65
2021/08/03 06:43:38;;;;;;;0.73;0.60;;;;;;;;;;5026408;28;20051;-65
2021/08/03 06:46:07;;;;;;;0.40;0.40;;;;;;;;;;5026229;28;20029;-64
2021/08/03 06:48:45;;;;;;;1.15;0.68;;;;;;;;;;5026470;28;20550;-64
2021/08/03 06:51:15;;;;;;;0.50;0.50;;;;;;;;;;5034895;28;20060;-65
2021/08/03 06:53:41;;;;;;;0.55;0.50;;;;;;;;;;5033383;28;20029;-64
2021/08/03 06:56:09;;;;;;;0.55;0.40;;;;;;;;;;5040212;28;20523;-64
2021/08/03 06:58:38;;;;;;;0.95;0.47;;;;;;;;;;5033055;28;20040;-64
2021/08/03 07:01:05;;;;;;;0.45;0.45;;;;;;;;;;5031983;28;20436;-65
2021/08/03 07:03:41;;;;;;;0.68;0.60;;;;;;;;;;5032914;28;20065;-64
2021/08/03 07:06:09;;;;;;;1.08;0.70;;;;;;;;;;5040718;28;20045;-64
2021/08/03 07:08:36;;;;;;;1.10;0.52;;;;;;;;;;5029989;28;20211;-64
2021/08/03 07:11:03;;;;;;;0.40;0.40;;;;;;;;;;5029871;28;20448;-64
2021/08/03 07:13:30;;;;;;;0.45;0.45;;;;;;;;;;5034819;28;20033;-65
2021/08/03 07:15:57;;;;;;;0.50;0.50;;;;;;;;;;5046203;28;20078;-64
2021/08/03 07:18:23;;;;;;;0.40;0.40;;;;;;;;;;5042072;28;20120;-64
2021/08/03 07:20:50;;;;;;;0.40;0.40;;;;;;;;;;5035198;28;20120;-64
2021/08/03 07:23:18;;;;;;;0.60;0.50;;;;;;;;;;5026853;28;20070;-64
2021/08/03 07:25:45;;;;;;;0.50;0.50;;;;;;;;;;5027328;28;20029;-65
2021/08/03 07:28:11;;;;;;;0.35;0.35;;;;;;;;;;5026538;28;20033;-65
2021/08/03 07:30:37;;;;;;;0.63;0.60;;;;;;;;;;5024855;28;20033;-64
2021/08/03 07:33:03;;;;;;;0.68;0.60;;;;;;;;;;5033346;28;20051;-64
2021/08/03 07:35:30;;;;;;;0.60;0.60;;;;;;;;;;5032329;28;20120;-64
2021/08/03 07:37:56;;;;;;;0.50;0.50;;;;;;;;;;5026960;28;20532;-63
2021/08/03 07:40:22;;;;;;;0.55;0.47;;;;;;;;;;5027733;28;20573;-64
2021/08/03 07:42:48;;;;;;;0.50;0.50;;;;;;;;;;5025967;28;20025;-64
2021/08/03 07:45:14;;;;;;;0.50;0.50;;;;;;;;;;5033548;28;20094;-64
2021/08/03 07:47:40;;;;;;;0.30;0.30;;;;;;;;;;5040238;28;20034;-64
2021/08/03 07:50:06;;;;;;;0.47;0.47;;;;;;;;;;5026890;28;20404;-64
2021/08/03 07:52:32;;;;;;;0.60;0.60;;;;;;;;;;5027300;28;20034;-64
2021/08/03 07:54:58;;;;;;;0.43;0.43;;;;;;;;;;5029461;28;20022;-64
2021/08/03 07:57:24;;;;;;;0.60;0.60;;;;;;;;;;5036720;28;20028;-64
2021/08/03 07:59:51;;;;;;;0.40;0.40;;;;;;;;;;5028993;28;20025;-64
2021/08/03 08:02:17;;;;;;;0.75;0.50;;;;;;;;;;5036763;28;20033;-65
2021/08/03 08:04:43;;;;;;;0.50;0.50;;;;;;;;;;5026983;28;20423;-64
2021/08/03 08:07:09;;;;;;;0.50;0.50;;;;;;;;;;5025573;28;20033;-64
2021/08/03 08:09:36;;;;;;;0.50;0.50;;;;;;;;;;5045287;28;20040;-63
2021/08/03 08:12:02;;;;;;;0.43;0.43;;;;;;;;;;5045182;28;20115;-64
2021/08/03 08:14:30;;;;;;;0.77;0.60;;;;;;;;;;5030147;28;20038;-64
2021/08/03 08:16:57;;;;;;;0.65;0.50;;;;;;;;;;5025713;28;20052;-65
2021/08/03 08:19:23;;;;;;;0.40;0.40;;;;;;;;;;5025975;28;20030;-65
2021/08/03 08:21:50;;;;;;;0.38;0.38;;;;;;;;;;5025576;28;20462;-64
2021/08/03 08:24:16;;;;;;;0.52;0.43;;;;;;;;;;5034236;28;20037;-64
2021/08/03 08:26:44;;;;;;;1.10;0.60;;;;;;;;;;5032991;28;20035;-65
2021/08/03 08:29:10;;;;;;;0.40;0.40;;;;;;;;;;5025755;28;20112;-65
2021/08/03 08:31:38;;;;;;;0.63;0.47;;;;;;;;;;5025647;28;20100;-65
2021/08/03 08:34:04;;;;;;;1.00;0.57;;;;;;;;;;5025110;28;20429;-65
2021/08/03 08:36:30;;;;;;;0.50;0.50;;;;;;;;;;5026386;28;20029;-65
2021/08/03 08:38:56;;;;;;;0.47;0.47;;;;;;;;;;5025491;28;20029;-65
2021/08/03 08:41:23;;;;;;;0.30;0.30;;;;;;;;;;5025437;28;20017;-65
2021/08/03 08:43:50;;;;;;;0.50;0.45;;;;;;;;;;5024930;28;20042;-57
2021/08/03 08:46:17;;;;;;;0.50;0.50;;;;;;;;;;5044126;28;20083;-58
2021/08/03 08:48:43;;;;;;;0.45;0.40;;;;;;;;;;5045079;28;20025;-57
2021/08/03 08:51:10;;;;;;;0.73;0.50;;;;;;;;;;5028868;28;20496;-60
2021/08/03 08:53:36;;;;;;;0.40;0.40;;;;;;;;;;5025230;28;20038;-62
2021/08/03 08:56:03;;;;;;;0.50;0.45;;;;;;;;;;5024760;28;20026;-68
2021/08/03 08:58:31;;;;;;;0.50;0.50;;;;;;;;;;5025115;28;20565;-68
2021/08/03 09:00:57;;;;;;;0.85;0.70;;;;;;;;;;5025971;28;20032;-69
2021/08/03 09:03:23;;;;;;;0.60;0.60;;;;;;;;;;5041723;28;20059;-67
2021/08/03 09:05:58;;;;;;;0.50;0.50;;;;;;;;;;5035621;28;20788;-67
2021/08/03 09:08:27;;;;;;;0.40;0.40;;;;;;;;;;5027860;28;20053;-67
2021/08/03 09:10:53;;;;;;;1.40;0.57;;;;;;;;;;5046021;28;20104;-67
2021/08/03 09:13:20;;;;;;;0.60;0.60;;;;;;;;;;5046261;28;20047;-67
2021/08/03 09:15:55;;;;;;;0.50;0.50;;;;;;;;;;5036300;28;20029;-67
2021/08/03 09:18:28;;;;;;;1.00;0.70;;;;;;;;;;5027384;28;20698;-68
2021/08/03 09:20:55;;;;;;;0.70;0.70;;;;;;;;;;5025857;28;20511;-68
2021/08/03 09:23:39;;;;;;;0.40;0.40;;;;;;;;;;5044986;28;20029;-68
2021/08/03 09:26:05;;;;;;;1.00;0.50;;;;;;;;;;5042377;28;20017;-68
2021/08/03 09:28:31;;;;;;;0.40;0.40;;;;;;;;;;5048576;28;20033;-68
2021/08/03 09:30:57;;;;;;;0.50;0.45;;;;;;;;;;5048552;28;20532;-67
2021/08/03 09:33:24;;;;;;;0.35;0.35;;;;;;;;;;5043096;28;20029;-67
2021/08/03 09:35:51;;;;;;;0.40;0.40;;;;;;;;;;5043104;28;20446;-68
2021/08/03 09:38:19;;;;;;;0.40;0.40;;;;;;;;;;5030788;28;20029;-67
2021/08/03 09:40:46;;;;;;;0.50;0.40;;;;;;;;;;5032437;28;20032;-67
2021/08/03 09:43:13;;;;;;;0.40;0.40;;;;;;;;;;5037125;28;20546;-68
2021/08/03 09:45:42;;;;;;;0.30;0.30;;;;;;;;;;5045742;28;20032;-68
2021/08/03 09:48:11;;;;;;;0.30;0.30;;;;;;;;;;5036109;28;20029;-67
2021/08/03 09:50:56;;;;;;;0.40;0.30;;;;;;;;;;5029009;28;20032;-68
2021/08/03 09:53:35;;;;;;;0.30;0.30;;;;;;;;;;5042231;28;20029;-67
2021/08/03 09:56:01;;;;;;;0.52;0.50;;;;;;;;;;5047325;28;20124;-69
2021/08/03 09:58:27;;;;;;;0.30;0.30;;;;;;;;;;5048700;28;20029;-69
2021/08/03 10:00:53;;;;;;;0.40;0.40;;;;;;;;;;5042462;28;20045;-69
2021/08/03 10:03:19;;;;;;;0.30;0.30;;;;;;;;;;5027966;28;20028;-66
2021/08/03 10:05:47;;;;;;;0.32;0.32;;;;;;;;;;5042216;28;20030;-67
2021/08/03 10:08:13;;;;;;;0.30;0.30;;;;;;;;;;5037131;28;20104;-67
2021/08/03 10:10:39;;;;;;;0.40;0.40;;;;;;;;;;5048050;28;20812;-67
2021/08/03 10:13:06;;;;;;;0.30;0.30;;;;;;;;;;5030812;28;20038;-67
2021/08/03 10:15:32;;;;;;;0.40;0.40;;;;;;;;;;5031630;28;20060;-68
2021/08/03 10:17:58;;;;;;;0.30;0.30;;;;;;;;;;5039290;28;20036;-66
2021/08/03 10:20:24;;;;;;;0.50;0.50;;;;;;;;;;5036086;28;20809;-66
2021/08/03 10:23:02;;;;;;;0.40;0.32;;;;;;;;;;5026975;28;20033;-67
2021/08/03 10:25:46;;;;;;;0.40;0.40;;;;;;;;;;5037639;28;20756;-66
2021/08/03 10:28:25;;;;;;;0.40;0.40;;;;;;;;;;5047024;28;20036;-66
2021/08/03 10:30:52;;;;;;;0.50;0.50;;;;;;;;;;5045901;28;20751;-66
2021/08/03 10:33:37;;;;;;;0.60;0.60;;;;;;;;;;5027332;28;20040;-66
2021/08/03 10:36:03;;;;;;;0.40;0.40;;;;;;;;;;5027506;28;20079;-73
2021/08/03 10:38:29;;;;;;;0.40;0.40;;;;;;;;;;5031485;28;20032;-67
2021/08/03 10:41:02;;;;;;;0.45;0.45;;;;;;;;;;5033916;28;20045;-67
2021/08/03 10:43:34;;;;;;;0.30;0.30;;;;;;;;;;5044145;28;20041;-67
2021/08/03 10:46:07;;;;;;;0.40;0.40;;;;;;;;;;5046784;28;20033;-67
2021/08/03 10:48:39;;;;;;;0.40;0.35;;;;;;;;;;5039516;28;20055;-68
2021/08/03 10:51:17;;;;;;;0.32;0.32;;;;;;;;;;5042523;28;20040;-69
2021/08/03 10:53:52;;;;;;;0.30;0.30;;;;;;;;;;5027577;28;20080;-67
2021/08/03 10:56:19;;;;;;;0.30;0.30;;;;;;;;;;5043848;28;20139;-68
2021/08/03 10:58:45;;;;;;;0.30;0.30;;;;;;;;;;5039274;28;20037;-67
2021/08/03 11:01:11;;;;;;;0.30;0.30;;;;;;;;;;5040549;28;20037;-66
2021/08/03 11:03:37;;;;;;;0.60;0.60;;;;;;;;;;5036303;28;20368;-68
2021/08/03 11:06:06;;;;;;;0.63;0.63;;;;;;;;;;5034664;28;20034;-68
2021/08/03 11:08:34;;;;;;;0.30;0.30;;;;;;;;;;5029588;28;20526;-68
2021/08/03 11:11:07;;;;;;;0.40;0.40;;;;;;;;;;5032888;28;20428;-67
2021/08/03 11:13:38;;;;;;;0.35;0.35;;;;;;;;;;5030716;28;20029;-68
2021/08/03 11:16:04;;;;;;;0.60;0.60;;;;;;;;;;5045164;28;20033;-67
2021/08/03 11:18:41;;;;;;;0.68;0.68;;;;;;;;;;5038829;28;20092;-68
2021/08/03 11:21:07;;;;;;;0.60;0.60;;;;;;;;;;5042499;28;20029;-68
2021/08/03 11:23:52;;;;;;;0.70;0.70;;;;;;;;;;5026094;28;20051;-68
2021/08/03 11:26:21;;;;;;;1.35;0.80;;;;;;;;;;5031236;28;20029;-73
2021/08/03 11:28:57;;;;;;;0.68;0.68;;;;;;;;;;5033061;28;20025;-67
2021/08/03 11:31:43;;;;;;;0.80;0.80;;;;;;;;;;5026925;28;20033;-68
2021/08/03 11:34:10;;;;;;;1.00;0.70;;;;;;;;;;5036287;28;20773;-67
2021/08/03 11:36:36;;;;;;;0.73;0.73;;;;;;;;;;5026325;28;20038;-69
2021/08/03 11:39:19;;;;;;;1.00;0.77;;;;;;;;;;5026801;28;20099;-68
2021/08/03 11:41:47;;;;;;;0.57;0.57;;;;;;;;;;5041226;28;20099;-70
2021/08/03 11:44:16;;;;;;;1.10;0.88;;;;;;;;;;5033585;28;20025;-65
2021/08/03 11:46:47;;;;;;;0.93;0.70;;;;;;;;;;5032515;28;20032;-70
2021/08/03 11:49:13;;;;;;;0.70;0.70;;;;;;;;;;5035950;28;20029;-70
2021/08/03 11:51:47;;;;;;;1.10;1.00;;;;;;;;;;5043898;28;20616;-71
2021/08/03 11:54:18;;;;;;;1.05;0.95;;;;;;;;;;5030014;28;20057;-71
2021/08/03 11:56:44;;;;;;;1.20;0.90;;;;;;;;;;5045226;28;20100;-71
2021/08/03 11:59:11;;;;;;;0.90;0.82;;;;;;;;;;5036318;28;20570;-72
2021/08/03 12:01:51;;;;;;;1.02;0.90;;;;;;;;;;5026387;28;20018;-71
2021/08/03 12:04:18;;;;;;;1.40;0.63;;;;;;;;;;5029916;28;20025;-70
2021/08/03 12:06:45;;;;;;;0.70;0.70;;;;;;;;;;5031604;28;20487;-71
2021/08/03 12:09:11;;;;;;;0.50;0.50;;;;;;;;;;5039624;28;20029;-68
2021/08/03 12:11:38;;;;;;;0.98;0.70;;;;;;;;;;5033573;28;20111;-69
2021/08/03 12:14:16;;;;;;;1.08;0.88;;;;;;;;;;5034499;28;20017;-69
2021/08/03 12:16:43;;;;;;;0.90;0.90;;;;;;;;;;5028798;28;20041;-69
2021/08/03 12:19:28;;;;;;;0.70;0.70;;;;;;;;;;5032015;28;20031;-69
2021/08/03 12:21:55;;;;;;;0.50;0.50;;;;;;;;;;5039942;28;20983;-69
2021/08/03 12:24:21;;;;;;;0.80;0.68;;;;;;;;;;5031854;28;20563;-68
2021/08/03 12:26:47;;;;;;;0.73;0.73;;;;;;;;;;5029410;28;20104;-69
2021/08/03 12:29:14;;;;;;;0.60;0.60;;;;;;;;;;5032972;28;20159;-68
2021/08/03 12:31:43;;;;;;;0.60;0.60;;;;;;;;;;5030880;28;20496;-70
2021/08/03 12:34:17;;;;;;;0.80;0.80;;;;;;;;;;5037339;28;21306;-69
2021/08/03 12:36:47;;;;;;;0.60;0.60;;;;;;;;;;5033730;28;20162;-69
2021/08/03 12:39:19;;;;;;;0.65;0.65;;;;;;;;;;5031123;28;20518;-69
2021/08/03 12:42:04;;;;;;;0.65;0.65;;;;;;;;;;5027207;28;20389;-69
2021/08/03 12:44:32;;;;;;;0.80;0.80;;;;;;;;;;5035297;28;20112;-69
2021/08/03 12:47:12;;;;;;;1.00;0.80;;;;;;;;;;5034181;28;20032;-70
2021/08/03 12:49:41;;;;;;;0.70;0.70;;;;;;;;;;5024385;28;20526;-70
2021/08/03 12:52:08;;;;;;;0.65;0.65;;;;;;;;;;5022324;28;20120;-72
2021/08/03 12:54:34;;;;;;;0.90;0.90;;;;;;;;;;5023835;28;20060;-71
2021/08/03 12:57:00;;;;;;;1.10;0.80;;;;;;;;;;5024378;28;20038;-72
2021/08/03 12:59:32;;;;;;;0.98;0.75;;;;;;;;;;5033855;28;20086;-72
2021/08/03 13:01:59;;;;;;;1.48;0.77;;;;;;;;;;5038486;28;20028;-72
2021/08/03 13:04:26;;;;;;;0.95;0.80;;;;;;;;;;5033611;28;20032;-73
2021/08/03 13:07:00;;;;;;;0.93;0.90;;;;;;;;;;5040775;28;20060;-76
2021/08/03 13:09:29;;;;;;;1.10;1.00;;;;;;;;;;5047616;28;20029;-73
2021/08/03 13:11:56;;;;;;;0.80;0.80;;;;;;;;;;5043389;28;20029;-73
2021/08/03 13:14:22;;;;;;;0.95;0.90;;;;;;;;;;5032815;28;20087;-74
2021/08/03 13:16:56;;;;;;;0.70;0.70;;;;;;;;;;5027990;28;20333;-74
2021/08/03 13:19:23;;;;;;;0.73;0.73;;;;;;;;;;5025966;28;20136;-72
2021/08/03 13:21:50;;;;;;;0.60;0.60;;;;;;;;;;5038814;28;20060;-72
2021/08/03 13:24:16;;;;;;;2.50;1.20;;;;;;;;;;5047464;28;20233;-72
2021/08/03 13:26:43;;;;;;;0.80;0.73;;;;;;;;;;5047395;28;20052;-71
2021/08/03 13:29:09;;;;;;;0.82;0.82;;;;;;;;;;5042716;28;20037;-69
2021/08/03 13:31:36;;;;;;;0.70;0.70;;;;;;;;;;5029789;28;20106;-70
2021/08/03 13:34:03;;;;;;;0.80;0.80;;;;;;;;;;5037779;28;20780;-70
2021/08/03 13:36:29;;;;;;;0.77;0.75;;;;;;;;;;5045101;28;20033;-69
2021/08/03 13:38:55;;;;;;;1.20;1.10;;;;;;;;;;5034889;28;20096;-70
2021/08/03 13:41:22;;;;;;;0.77;0.77;;;;;;;;;;5031743;28;20523;-70
2021/08/03 13:43:48;;;;;;;1.13;1.02;;;;;;;;;;5032629;28;20087;-70
2021/08/03 13:46:15;;;;;;;1.00;0.88;;;;;;;;;;5027765;28;20475;-71
2021/08/03 13:48:41;;;;;;;1.08;0.90;;;;;;;;;;5023883;28;20029;-72
2021/08/03 13:51:07;;;;;;;1.13;1.02;;;;;;;;;;5023488;28;20588;-71
2021/08/03 13:53:33;;;;;;;1.60;1.40;;;;;;;;;;5041340;28;20029;-71
2021/08/03 13:55:59;;;;;;;0.95;0.95;;;;;;;;;;5032756;28;20031;-69
2021/08/03 13:58:26;;;;;;;0.95;0.85;;;;;;;;;;5030103;28;20067;-70
2021/08/03 14:00:52;;;;;;;1.23;1.10;;;;;;;;;;5036568;28;20415;-70
2021/08/03 14:03:18;;;;;;;1.27;1.17;;;;;;;;;;5042114;28;20021;-70
2021/08/03 14:05:44;;;;;;;1.20;1.10;;;;;;;;;;5028970;28;20026;-70
2021/08/03 14:08:11;;;;;;;1.05;0.80;;;;;;;;;;5038213;28;20037;-70
2021/08/03 14:10:38;;;;;;;0.80;0.80;;;;;;;;;;5037194;28;20530;-70
2021/08/03 14:13:04;;;;;;;1.58;0.80;;;;;;;;;;5031971;28;20057;-70
2021/08/03 14:15:30;;;;;;;0.93;0.88;;;;;;;;;;5040784;28;20087;-70
2021/08/03 14:17:56;;;;;;;0.70;0.70;;;;;;;;;;5033032;28;20041;-70
2021/08/03 14:20:22;;;;;;;0.85;0.80;;;;;;;;;;5029202;28;20065;-69
2021/08/03 14:22:49;;;;;;;0.98;0.90;;;;;;;;;;5025718;28;20450;-72
2021/08/03 14:25:15;;;;;;;0.80;0.80;;;;;;;;;;5028737;28;20032;-71
2021/08/03 14:27:41;;;;;;;0.60;0.60;;;;;;;;;;5038103;28;20037;-72
2021/08/03 14:30:07;;;;;;;0.98;0.95;;;;;;;;;;5023627;28;20017;-70
2021/08/03 14:32:33;;;;;;;0.60;0.60;;;;;;;;;;5027981;28;20057;-73
2021/08/03 14:34:59;;;;;;;1.23;0.80;;;;;;;;;;5026719;28;20110;-70
2021/08/03 14:37:26;;;;;;;1.25;0.80;;;;;;;;;;5029056;28;20095;-70
2021/08/03 14:39:53;;;;;;;0.70;0.70;;;;;;;;;;5041639;28;20102;-71
2021/08/03 14:42:20;;;;;;;0.70;0.60;;;;;;;;;;5045229;28;20132;-71
2021/08/03 14:44:46;;;;;;;0.52;0.52;;;;;;;;;;5045890;28;20021;-72
2021/08/03 14:47:12;;;;;;;0.80;0.80;;;;;;;;;;5029368;28;20040;-72
2021/08/03 14:49:39;;;;;;;0.70;0.70;;;;;;;;;;5025031;28;20474;-71